sensor_id;sensor_type;location;lat;lon;timestamp;P1;durP1;ratioP1;P2;durP2;ratioP2
30233;SDS011;17046;52.074;4.748;2023-04-01T00:00:46;53.47;;;17.33;;
30233;SDS011;17046;52.074;4.748;2023-04-01T00:03:12;41.17;;;14.77;;
30233;SDS011;17046;52.074;4.748;2023-04-01T00:05:38;38.83;;;14.07;;
30233;SDS011;17046;52.074;4.748;2023-04-01T00:08:04;37.80;;;12.03;;
30233;SDS011;17046;52.074;4.748;2023-04-01T00:10:32;44.87;;;14.13;;
30233;SDS011;17046;52.074;4.748;2023-04-01T00:12:58;46.83;;;13.80;;
30233;SDS011;17046;52.074;4.748;2023-04-01T00:15:23;49.30;;;16.27;;
30233;SDS011;17046;52.074;4.748;2023-04-01T00:17:49;53.83;;;18.00;;
30233;SDS011;17046;52.074;4.748;2023-04-01T00:20:15;52.93;;;18.57;;
30233;SDS011;17046;52.074;4.748;2023-04-01T00:22:40;50.23;;;16.30;;
30233;SDS011;17046;52.074;4.748;2023-04-01T00:25:06;47.17;;;15.70;;
30233;SDS011;17046;52.074;4.748;2023-04-01T00:27:32;47.03;;;14.93;;
30233;SDS011;17046;52.074;4.748;2023-04-01T00:29:58;47.40;;;13.07;;
30233;SDS011;17046;52.074;4.748;2023-04-01T00:32:26;49.73;;;16.43;;
30233;SDS011;17046;52.074;4.748;2023-04-01T00:34:52;42.77;;;12.27;;
30233;SDS011;17046;52.074;4.748;2023-04-01T00:37:18;37.23;;;11.23;;
30233;SDS011;17046;52.074;4.748;2023-04-01T00:39:47;38.07;;;13.47;;
30233;SDS011;17046;52.074;4.748;2023-04-01T00:42:13;41.07;;;11.77;;
30233;SDS011;17046;52.074;4.748;2023-04-01T00:44:39;37.13;;;10.67;;
30233;SDS011;17046;52.074;4.748;2023-04-01T00:47:05;33.57;;;9.40;;
30233;SDS011;17046;52.074;4.748;2023-04-01T00:49:36;37.40;;;11.13;;
30233;SDS011;17046;52.074;4.748;2023-04-01T00:52:07;22.53;;;8.97;;
30233;SDS011;17046;52.074;4.748;2023-04-01T00:54:35;25.90;;;8.73;;
30233;SDS011;17046;52.074;4.748;2023-04-01T00:57:06;24.53;;;6.90;;
30233;SDS011;17046;52.074;4.748;2023-04-01T00:59:38;22.83;;;6.60;;
30233;SDS011;17046;52.074;4.748;2023-04-01T01:02:11;18.00;;;6.57;;
30233;SDS011;17046;52.074;4.748;2023-04-01T01:04:38;19.37;;;7.10;;
30233;SDS011;17046;52.074;4.748;2023-04-01T01:12:14;20.87;;;6.13;;
30233;SDS011;17046;52.074;4.748;2023-04-01T01:18:09;21.13;;;6.77;;
30233;SDS011;17046;52.074;4.748;2023-04-01T01:26:43;19.50;;;6.73;;
30233;SDS011;17046;52.074;4.748;2023-04-01T01:32:29;23.10;;;6.90;;
30233;SDS011;17046;52.074;4.748;2023-04-01T01:35:14;25.63;;;6.17;;
30233;SDS011;17046;52.074;4.748;2023-04-01T01:37:46;28.40;;;7.03;;
30233;SDS011;17046;52.074;4.748;2023-04-01T01:40:15;25.00;;;7.60;;
30233;SDS011;17046;52.074;4.748;2023-04-01T01:42:43;24.30;;;7.17;;
30233;SDS011;17046;52.074;4.748;2023-04-01T01:45:21;21.43;;;6.90;;
30233;SDS011;17046;52.074;4.748;2023-04-01T01:47:50;23.20;;;8.17;;
30233;SDS011;17046;52.074;4.748;2023-04-01T01:50:17;28.77;;;8.43;;
30233;SDS011;17046;52.074;4.748;2023-04-01T01:52:43;20.50;;;7.13;;
30233;SDS011;17046;52.074;4.748;2023-04-01T01:57:55;25.60;;;8.13;;
30233;SDS011;17046;52.074;4.748;2023-04-01T02:00:27;24.57;;;8.70;;
30233;SDS011;17046;52.074;4.748;2023-04-01T02:02:53;24.17;;;7.93;;
30233;SDS011;17046;52.074;4.748;2023-04-01T02:05:21;30.27;;;9.70;;
30233;SDS011;17046;52.074;4.748;2023-04-01T02:07:51;31.57;;;9.50;;
30233;SDS011;17046;52.074;4.748;2023-04-01T02:10:37;33.27;;;9.83;;
30233;SDS011;17046;52.074;4.748;2023-04-01T02:13:16;22.70;;;8.03;;
30233;SDS011;17046;52.074;4.748;2023-04-01T02:15:59;24.80;;;8.77;;
30233;SDS011;17046;52.074;4.748;2023-04-01T02:18:29;21.93;;;8.50;;
30233;SDS011;17046;52.074;4.748;2023-04-01T02:20:57;19.60;;;7.70;;
30233;SDS011;17046;52.074;4.748;2023-04-01T02:23:24;18.30;;;7.40;;
30233;SDS011;17046;52.074;4.748;2023-04-01T02:25:51;20.13;;;7.80;;
30233;SDS011;17046;52.074;4.748;2023-04-01T02:28:17;21.10;;;7.20;;
30233;SDS011;17046;52.074;4.748;2023-04-01T02:30:45;20.33;;;7.80;;
30233;SDS011;17046;52.074;4.748;2023-04-01T02:33:14;19.87;;;7.33;;
30233;SDS011;17046;52.074;4.748;2023-04-01T02:35:40;22.27;;;8.83;;
30233;SDS011;17046;52.074;4.748;2023-04-01T02:38:06;19.17;;;8.43;;
30233;SDS011;17046;52.074;4.748;2023-04-01T02:40:45;27.53;;;10.07;;
30233;SDS011;17046;52.074;4.748;2023-04-01T02:43:13;29.03;;;9.63;;
30233;SDS011;17046;52.074;4.748;2023-04-01T02:45:39;30.17;;;11.77;;
30233;SDS011;17046;52.074;4.748;2023-04-01T02:48:05;34.47;;;12.13;;
30233;SDS011;17046;52.074;4.748;2023-04-01T02:50:30;31.80;;;12.20;;
30233;SDS011;17046;52.074;4.748;2023-04-01T02:52:56;43.57;;;14.07;;
30233;SDS011;17046;52.074;4.748;2023-04-01T02:55:22;36.33;;;12.67;;
30233;SDS011;17046;52.074;4.748;2023-04-01T02:57:47;39.83;;;13.60;;
30233;SDS011;17046;52.074;4.748;2023-04-01T03:00:16;41.97;;;14.63;;
30233;SDS011;17046;52.074;4.748;2023-04-01T03:02:44;46.20;;;15.80;;
30233;SDS011;17046;52.074;4.748;2023-04-01T03:05:10;44.40;;;16.87;;
30233;SDS011;17046;52.074;4.748;2023-04-01T03:07:36;54.80;;;16.80;;
30233;SDS011;17046;52.074;4.748;2023-04-01T03:10:01;45.53;;;17.07;;
30233;SDS011;17046;52.074;4.748;2023-04-01T03:12:27;43.23;;;16.80;;
30233;SDS011;17046;52.074;4.748;2023-04-01T03:14:52;38.73;;;15.47;;
30233;SDS011;17046;52.074;4.748;2023-04-01T03:17:18;42.20;;;14.10;;
30233;SDS011;17046;52.074;4.748;2023-04-01T03:19:43;32.00;;;11.70;;
30233;SDS011;17046;52.074;4.748;2023-04-01T03:22:10;24.77;;;10.37;;
30233;SDS011;17046;52.074;4.748;2023-04-01T03:24:36;26.03;;;10.50;;
30233;SDS011;17046;52.074;4.748;2023-04-01T03:27:02;21.93;;;9.67;;
30233;SDS011;17046;52.074;4.748;2023-04-01T03:29:27;21.90;;;9.07;;
30233;SDS011;17046;52.074;4.748;2023-04-01T03:31:53;24.97;;;9.90;;
30233;SDS011;17046;52.074;4.748;2023-04-01T03:34:19;27.53;;;9.90;;
30233;SDS011;17046;52.074;4.748;2023-04-01T03:36:44;23.23;;;9.53;;
30233;SDS011;17046;52.074;4.748;2023-04-01T03:39:10;19.90;;;9.60;;
30233;SDS011;17046;52.074;4.748;2023-04-01T03:41:36;23.97;;;10.53;;
30233;SDS011;17046;52.074;4.748;2023-04-01T03:44:03;27.13;;;10.33;;
30233;SDS011;17046;52.074;4.748;2023-04-01T03:46:28;30.30;;;11.37;;
30233;SDS011;17046;52.074;4.748;2023-04-01T03:48:54;32.53;;;12.43;;
30233;SDS011;17046;52.074;4.748;2023-04-01T03:51:20;33.63;;;11.93;;
30233;SDS011;17046;52.074;4.748;2023-04-01T03:53:45;35.20;;;13.53;;
30233;SDS011;17046;52.074;4.748;2023-04-01T03:56:11;34.23;;;12.80;;
30233;SDS011;17046;52.074;4.748;2023-04-01T03:58:37;38.33;;;14.23;;
30233;SDS011;17046;52.074;4.748;2023-04-01T04:01:12;34.57;;;13.53;;
30233;SDS011;17046;52.074;4.748;2023-04-01T04:03:38;37.80;;;14.13;;
30233;SDS011;17046;52.074;4.748;2023-04-01T04:06:04;38.63;;;13.93;;
30233;SDS011;17046;52.074;4.748;2023-04-01T04:08:30;35.20;;;14.20;;
30233;SDS011;17046;52.074;4.748;2023-04-01T04:10:55;33.77;;;13.50;;
30233;SDS011;17046;52.074;4.748;2023-04-01T04:13:21;41.23;;;14.27;;
30233;SDS011;17046;52.074;4.748;2023-04-01T04:15:46;34.63;;;14.63;;
30233;SDS011;17046;52.074;4.748;2023-04-01T04:18:12;35.83;;;14.13;;
30233;SDS011;17046;52.074;4.748;2023-04-01T04:20:43;37.63;;;13.93;;
30233;SDS011;17046;52.074;4.748;2023-04-01T04:23:10;37.70;;;14.77;;
30233;SDS011;17046;52.074;4.748;2023-04-01T04:25:36;28.97;;;12.83;;
30233;SDS011;17046;52.074;4.748;2023-04-01T04:28:01;34.07;;;13.27;;
30233;SDS011;17046;52.074;4.748;2023-04-01T04:30:27;32.53;;;13.30;;
30233;SDS011;17046;52.074;4.748;2023-04-01T04:32:53;31.97;;;13.83;;
30233;SDS011;17046;52.074;4.748;2023-04-01T04:35:18;31.03;;;12.97;;
30233;SDS011;17046;52.074;4.748;2023-04-01T04:37:44;29.60;;;12.40;;
30233;SDS011;17046;52.074;4.748;2023-04-01T04:40:10;29.93;;;12.63;;
30233;SDS011;17046;52.074;4.748;2023-04-01T04:42:38;32.13;;;13.17;;
30233;SDS011;17046;52.074;4.748;2023-04-01T04:45:07;28.27;;;11.33;;
30233;SDS011;17046;52.074;4.748;2023-04-01T04:47:33;28.97;;;12.83;;
30233;SDS011;17046;52.074;4.748;2023-04-01T04:49:58;28.93;;;11.50;;
30233;SDS011;17046;52.074;4.748;2023-04-01T04:52:24;31.73;;;12.27;;
30233;SDS011;17046;52.074;4.748;2023-04-01T04:54:49;32.37;;;13.43;;
30233;SDS011;17046;52.074;4.748;2023-04-01T04:57:15;31.07;;;12.80;;
30233;SDS011;17046;52.074;4.748;2023-04-01T04:59:40;31.20;;;13.97;;
30233;SDS011;17046;52.074;4.748;2023-04-01T05:02:06;30.30;;;12.80;;
30233;SDS011;17046;52.074;4.748;2023-04-01T05:04:35;37.13;;;13.90;;
30233;SDS011;17046;52.074;4.748;2023-04-01T05:07:02;41.63;;;15.57;;
30233;SDS011;17046;52.074;4.748;2023-04-01T05:09:27;42.10;;;15.27;;
30233;SDS011;17046;52.074;4.748;2023-04-01T05:11:53;43.53;;;15.73;;
30233;SDS011;17046;52.074;4.748;2023-04-01T05:14:19;40.53;;;14.93;;
30233;SDS011;17046;52.074;4.748;2023-04-01T05:16:45;42.47;;;15.80;;
30233;SDS011;17046;52.074;4.748;2023-04-01T05:19:10;49.07;;;16.57;;
30233;SDS011;17046;52.074;4.748;2023-04-01T05:21:36;40.63;;;15.13;;
30233;SDS011;17046;52.074;4.748;2023-04-01T05:24:01;44.97;;;14.90;;
30233;SDS011;17046;52.074;4.748;2023-04-01T05:26:27;49.03;;;14.93;;
30233;SDS011;17046;52.074;4.748;2023-04-01T05:28:53;39.67;;;15.10;;
30233;SDS011;17046;52.074;4.748;2023-04-01T05:31:18;38.67;;;13.67;;
30233;SDS011;17046;52.074;4.748;2023-04-01T05:33:44;40.30;;;13.20;;
30233;SDS011;17046;52.074;4.748;2023-04-01T05:36:10;43.97;;;14.00;;
30233;SDS011;17046;52.074;4.748;2023-04-01T05:38:41;33.13;;;12.90;;
30233;SDS011;17046;52.074;4.748;2023-04-01T05:41:11;33.10;;;12.63;;
30233;SDS011;17046;52.074;4.748;2023-04-01T05:43:37;32.77;;;12.50;;
30233;SDS011;17046;52.074;4.748;2023-04-01T05:46:03;47.60;;;13.97;;
30233;SDS011;17046;52.074;4.748;2023-04-01T05:48:29;37.80;;;14.10;;
30233;SDS011;17046;52.074;4.748;2023-04-01T05:50:55;37.53;;;13.20;;
30233;SDS011;17046;52.074;4.748;2023-04-01T05:53:20;41.77;;;14.70;;
30233;SDS011;17046;52.074;4.748;2023-04-01T05:55:47;39.20;;;14.27;;
30233;SDS011;17046;52.074;4.748;2023-04-01T05:58:13;37.77;;;13.07;;
30233;SDS011;17046;52.074;4.748;2023-04-01T06:00:38;37.17;;;13.57;;
30233;SDS011;17046;52.074;4.748;2023-04-01T06:03:04;37.57;;;14.40;;
30233;SDS011;17046;52.074;4.748;2023-04-01T06:05:30;39.40;;;15.07;;
30233;SDS011;17046;52.074;4.748;2023-04-01T06:08:10;39.97;;;13.30;;
30233;SDS011;17046;52.074;4.748;2023-04-01T06:10:40;37.70;;;13.90;;
30233;SDS011;17046;52.074;4.748;2023-04-01T06:13:30;33.70;;;12.77;;
30233;SDS011;17046;52.074;4.748;2023-04-01T06:16:07;33.33;;;13.93;;
30233;SDS011;17046;52.074;4.748;2023-04-01T06:21:48;36.03;;;15.27;;
30233;SDS011;17046;52.074;4.748;2023-04-01T06:29:55;38.70;;;16.10;;
30233;SDS011;17046;52.074;4.748;2023-04-01T06:40:51;38.93;;;17.73;;
30233;SDS011;17046;52.074;4.748;2023-04-01T06:57:52;47.57;;;17.83;;
30233;SDS011;17046;52.074;4.748;2023-04-01T07:00:33;44.03;;;18.03;;
30233;SDS011;17046;52.074;4.748;2023-04-01T07:03:20;43.10;;;18.27;;
30233;SDS011;17046;52.074;4.748;2023-04-01T07:05:59;47.67;;;19.93;;
30233;SDS011;17046;52.074;4.748;2023-04-01T07:08:31;42.73;;;18.13;;
30233;SDS011;17046;52.074;4.748;2023-04-01T07:11:04;47.20;;;19.37;;
30233;SDS011;17046;52.074;4.748;2023-04-01T07:13:43;42.23;;;18.20;;
30233;SDS011;17046;52.074;4.748;2023-04-01T07:16:21;37.63;;;16.80;;
30233;SDS011;17046;52.074;4.748;2023-04-01T07:24:34;45.80;;;18.63;;
30233;SDS011;17046;52.074;4.748;2023-04-01T07:27:02;43.53;;;18.00;;
30233;SDS011;17046;52.074;4.748;2023-04-01T07:29:30;42.63;;;17.50;;
30233;SDS011;17046;52.074;4.748;2023-04-01T07:34:56;42.20;;;16.00;;
30233;SDS011;17046;52.074;4.748;2023-04-01T07:51:08;31.87;;;13.57;;
30233;SDS011;17046;52.074;4.748;2023-04-01T07:53:52;28.07;;;12.20;;
30233;SDS011;17046;52.074;4.748;2023-04-01T08:02:06;37.20;;;13.97;;
30233;SDS011;17046;52.074;4.748;2023-04-01T08:07:25;30.57;;;12.93;;
30233;SDS011;17046;52.074;4.748;2023-04-01T08:10:19;33.13;;;12.23;;
30233;SDS011;17046;52.074;4.748;2023-04-01T08:15:44;33.83;;;12.50;;
30233;SDS011;17046;52.074;4.748;2023-04-01T08:21:02;29.33;;;12.40;;
30233;SDS011;17046;52.074;4.748;2023-04-01T08:23:40;31.83;;;12.97;;
30233;SDS011;17046;52.074;4.748;2023-04-01T08:29:09;23.87;;;11.10;;
30233;SDS011;17046;52.074;4.748;2023-04-01T08:35:02;23.40;;;10.80;;
30233;SDS011;17046;52.074;4.748;2023-04-01T08:37:35;23.80;;;11.13;;
30233;SDS011;17046;52.074;4.748;2023-04-01T08:56:29;25.93;;;12.23;;
30233;SDS011;17046;52.074;4.748;2023-04-01T08:59:16;25.13;;;10.80;;
30233;SDS011;17046;52.074;4.748;2023-04-01T09:04:52;17.03;;;8.73;;
30233;SDS011;17046;52.074;4.748;2023-04-01T09:18:49;19.13;;;9.10;;
30233;SDS011;17046;52.074;4.748;2023-04-01T09:21:46;19.67;;;8.13;;
30233;SDS011;17046;52.074;4.748;2023-04-01T09:40:46;20.27;;;8.90;;
30233;SDS011;17046;52.074;4.748;2023-04-01T09:43:26;16.00;;;7.97;;
30233;SDS011;17046;52.074;4.748;2023-04-01T10:13:43;8.67;;;4.50;;
30233;SDS011;17046;52.074;4.748;2023-04-01T10:16:56;8.20;;;4.17;;
30233;SDS011;17046;52.074;4.748;2023-04-01T10:23:22;8.33;;;4.00;;
30233;SDS011;17046;52.074;4.748;2023-04-01T10:25:40;11.37;;;5.40;;
30233;SDS011;17046;52.074;4.748;2023-04-01T10:36:00;12.30;;;6.47;;
30233;SDS011;17046;52.074;4.748;2023-04-01T10:39:17;16.03;;;7.23;;
30233;SDS011;17046;52.074;4.748;2023-04-01T10:42:07;16.17;;;8.03;;
30233;SDS011;17046;52.074;4.748;2023-04-01T10:56:24;18.53;;;8.47;;
30233;SDS011;17046;52.074;4.748;2023-04-01T11:13:06;15.50;;;7.80;;
30233;SDS011;17046;52.074;4.748;2023-04-01T11:27:22;14.60;;;8.43;;
30233;SDS011;17046;52.074;4.748;2023-04-01T11:30:12;18.73;;;9.10;;
30233;SDS011;17046;52.074;4.748;2023-04-01T11:37:57;15.07;;;9.27;;
30233;SDS011;17046;52.074;4.748;2023-04-01T11:49:18;13.10;;;8.20;;
30233;SDS011;17046;52.074;4.748;2023-04-01T11:54:43;9.40;;;6.43;;
30233;SDS011;17046;52.074;4.748;2023-04-01T12:18:04;17.90;;;9.97;;
30233;SDS011;17046;52.074;4.748;2023-04-01T12:20:43;16.63;;;9.77;;
30233;SDS011;17046;52.074;4.748;2023-04-01T12:29:17;20.23;;;9.50;;
30233;SDS011;17046;52.074;4.748;2023-04-01T12:34:50;17.67;;;9.40;;
30233;SDS011;17046;52.074;4.748;2023-04-01T12:39:52;19.93;;;9.33;;
30233;SDS011;17046;52.074;4.748;2023-04-01T12:48:18;21.13;;;10.07;;
30233;SDS011;17046;52.074;4.748;2023-04-01T12:51:07;17.40;;;9.57;;
30233;SDS011;17046;52.074;4.748;2023-04-01T12:59:28;20.97;;;10.23;;
30233;SDS011;17046;52.074;4.748;2023-04-01T13:02:31;24.63;;;9.70;;
30233;SDS011;17046;52.074;4.748;2023-04-01T13:05:20;17.90;;;8.03;;
30233;SDS011;17046;52.074;4.748;2023-04-01T13:08:05;19.33;;;8.63;;
30233;SDS011;17046;52.074;4.748;2023-04-01T13:10:46;19.37;;;9.47;;
30233;SDS011;17046;52.074;4.748;2023-04-01T13:13:29;21.90;;;10.70;;
30233;SDS011;17046;52.074;4.748;2023-04-01T13:16:16;23.23;;;10.47;;
30233;SDS011;17046;52.074;4.748;2023-04-01T13:27:09;22.70;;;10.07;;
30233;SDS011;17046;52.074;4.748;2023-04-01T13:37:47;20.93;;;9.00;;
30233;SDS011;17046;52.074;4.748;2023-04-01T13:40:26;18.70;;;8.80;;
30233;SDS011;17046;52.074;4.748;2023-04-01T13:42:57;17.83;;;8.73;;
30233;SDS011;17046;52.074;4.748;2023-04-01T13:56:57;16.17;;;8.53;;
30233;SDS011;17046;52.074;4.748;2023-04-01T14:03:00;18.03;;;8.00;;
30233;SDS011;17046;52.074;4.748;2023-04-01T14:28:13;12.83;;;8.30;;
30233;SDS011;17046;52.074;4.748;2023-04-01T14:30:46;13.10;;;7.97;;
30233;SDS011;17046;52.074;4.748;2023-04-01T14:36:08;14.57;;;8.73;;
30233;SDS011;17046;52.074;4.748;2023-04-01T14:39:15;14.60;;;8.83;;
30233;SDS011;17046;52.074;4.748;2023-04-01T14:49:42;11.40;;;6.00;;
30233;SDS011;17046;52.074;4.748;2023-04-01T14:52:15;12.27;;;6.50;;
30233;SDS011;17046;52.074;4.748;2023-04-01T14:54:52;9.93;;;6.23;;
30233;SDS011;17046;52.074;4.748;2023-04-01T14:57:26;10.17;;;5.83;;
30233;SDS011;17046;52.074;4.748;2023-04-01T14:59:54;9.87;;;6.60;;
30233;SDS011;17046;52.074;4.748;2023-04-01T15:04:56;9.43;;;6.27;;
30233;SDS011;17046;52.074;4.748;2023-04-01T15:07:49;10.43;;;7.07;;
30233;SDS011;17046;52.074;4.748;2023-04-01T15:13:24;13.43;;;8.03;;
30233;SDS011;17046;52.074;4.748;2023-04-01T15:23:54;14.43;;;8.83;;
30233;SDS011;17046;52.074;4.748;2023-04-01T15:32:05;26.80;;;16.67;;
30233;SDS011;17046;52.074;4.748;2023-04-01T15:46:14;17.80;;;11.10;;
30233;SDS011;17046;52.074;4.748;2023-04-01T15:57:45;17.70;;;9.93;;
30233;SDS011;17046;52.074;4.748;2023-04-01T16:00:23;14.87;;;8.80;;
30233;SDS011;17046;52.074;4.748;2023-04-01T16:15:43;15.07;;;9.17;;
30233;SDS011;17046;52.074;4.748;2023-04-01T16:18:28;14.73;;;8.70;;
30233;SDS011;17046;52.074;4.748;2023-04-01T16:21:41;13.37;;;8.93;;
30233;SDS011;17046;52.074;4.748;2023-04-01T16:26:55;15.23;;;8.87;;
30233;SDS011;17046;52.074;4.748;2023-04-01T16:29:43;14.47;;;8.67;;
30233;SDS011;17046;52.074;4.748;2023-04-01T16:34:44;16.60;;;9.83;;
30233;SDS011;17046;52.074;4.748;2023-04-01T16:37:43;15.57;;;9.50;;
30233;SDS011;17046;52.074;4.748;2023-04-01T16:43:04;14.53;;;9.00;;
30233;SDS011;17046;52.074;4.748;2023-04-01T16:45:37;14.77;;;9.37;;
30233;SDS011;17046;52.074;4.748;2023-04-01T16:50:53;15.03;;;9.27;;
30233;SDS011;17046;52.074;4.748;2023-04-01T16:56:16;14.87;;;9.17;;
30233;SDS011;17046;52.074;4.748;2023-04-01T16:59:04;14.77;;;10.27;;
30233;SDS011;17046;52.074;4.748;2023-04-01T17:01:44;11.63;;;8.07;;
30233;SDS011;17046;52.074;4.748;2023-04-01T17:04:23;14.03;;;8.43;;
30233;SDS011;17046;52.074;4.748;2023-04-01T17:07:21;13.60;;;8.37;;
30233;SDS011;17046;52.074;4.748;2023-04-01T17:09:51;13.57;;;9.40;;
30233;SDS011;17046;52.074;4.748;2023-04-01T17:15:15;11.10;;;7.80;;
30233;SDS011;17046;52.074;4.748;2023-04-01T17:21:10;8.67;;;6.13;;
30233;SDS011;17046;52.074;4.748;2023-04-01T17:23:43;10.43;;;7.17;;
30233;SDS011;17046;52.074;4.748;2023-04-01T17:26:36;8.53;;;6.07;;
30233;SDS011;17046;52.074;4.748;2023-04-01T17:29:11;8.07;;;5.93;;
30233;SDS011;17046;52.074;4.748;2023-04-01T17:31:44;8.27;;;6.37;;
30233;SDS011;17046;52.074;4.748;2023-04-01T17:43:20;6.07;;;4.73;;
30233;SDS011;17046;52.074;4.748;2023-04-01T17:45:54;9.33;;;6.20;;
30233;SDS011;17046;52.074;4.748;2023-04-01T17:51:17;8.70;;;6.10;;
30233;SDS011;17046;52.074;4.748;2023-04-01T17:54:02;6.33;;;5.07;;
30233;SDS011;17046;52.074;4.748;2023-04-01T17:59:37;7.50;;;5.67;;
30233;SDS011;17046;52.074;4.748;2023-04-01T18:08:14;20.80;;;12.00;;
30233;SDS011;17046;52.074;4.748;2023-04-01T18:10:46;16.17;;;9.53;;
30233;SDS011;17046;52.074;4.748;2023-04-01T18:13:19;13.37;;;9.10;;
30233;SDS011;17046;52.074;4.748;2023-04-01T18:16:22;11.70;;;7.93;;
30233;SDS011;17046;52.074;4.748;2023-04-01T18:21:44;8.10;;;6.17;;
30233;SDS011;17046;52.074;4.748;2023-04-01T18:24:29;6.83;;;5.67;;
30233;SDS011;17046;52.074;4.748;2023-04-01T18:40:36;9.47;;;6.47;;
30233;SDS011;17046;52.074;4.748;2023-04-01T18:54:16;13.47;;;9.17;;
30233;SDS011;17046;52.074;4.748;2023-04-01T18:56:49;12.93;;;9.83;;
30233;SDS011;17046;52.074;4.748;2023-04-01T18:59:20;11.87;;;9.63;;
30233;SDS011;17046;52.074;4.748;2023-04-01T19:02:00;13.03;;;8.80;;
30233;SDS011;17046;52.074;4.748;2023-04-01T19:04:39;11.47;;;8.00;;
30233;SDS011;17046;52.074;4.748;2023-04-01T19:07:24;12.80;;;9.03;;
30233;SDS011;17046;52.074;4.748;2023-04-01T19:10:00;14.80;;;8.73;;
30233;SDS011;17046;52.074;4.748;2023-04-01T19:12:48;11.83;;;8.57;;
30233;SDS011;17046;52.074;4.748;2023-04-01T19:29:56;12.47;;;8.83;;
30233;SDS011;17046;52.074;4.748;2023-04-01T19:35:35;12.63;;;8.07;;
30233;SDS011;17046;52.074;4.748;2023-04-01T19:43:59;12.47;;;8.87;;
30233;SDS011;17046;52.074;4.748;2023-04-01T19:47:05;11.83;;;8.47;;
30233;SDS011;17046;52.074;4.748;2023-04-01T19:56:15;14.10;;;8.03;;
30233;SDS011;17046;52.074;4.748;2023-04-01T20:01:33;10.80;;;7.63;;
30233;SDS011;17046;52.074;4.748;2023-04-01T20:04:04;11.57;;;7.03;;
30233;SDS011;17046;52.074;4.748;2023-04-01T20:06:42;11.60;;;7.33;;
30233;SDS011;17046;52.074;4.748;2023-04-01T20:14:46;10.93;;;7.10;;
30233;SDS011;17046;52.074;4.748;2023-04-01T20:25:33;9.37;;;6.53;;
30233;SDS011;17046;52.074;4.748;2023-04-01T20:28:00;9.93;;;6.63;;
30233;SDS011;17046;52.074;4.748;2023-04-01T20:38:57;10.83;;;7.40;;
30233;SDS011;17046;52.074;4.748;2023-04-01T20:47:29;10.47;;;6.73;;
30233;SDS011;17046;52.074;4.748;2023-04-01T20:53:05;9.83;;;7.00;;
30233;SDS011;17046;52.074;4.748;2023-04-01T20:58:19;9.87;;;6.80;;
30233;SDS011;17046;52.074;4.748;2023-04-01T21:01:01;11.90;;;6.90;;
30233;SDS011;17046;52.074;4.748;2023-04-01T21:06:39;11.60;;;7.40;;
30233;SDS011;17046;52.074;4.748;2023-04-01T21:09:24;10.57;;;6.97;;
30233;SDS011;17046;52.074;4.748;2023-04-01T21:12:05;9.90;;;7.13;;
30233;SDS011;17046;52.074;4.748;2023-04-01T21:26:29;9.63;;;5.63;;
30233;SDS011;17046;52.074;4.748;2023-04-01T21:34:31;7.93;;;6.10;;
30233;SDS011;17046;52.074;4.748;2023-04-01T21:37:31;7.43;;;5.17;;
30233;SDS011;17046;52.074;4.748;2023-04-01T21:47:48;10.30;;;6.47;;
30233;SDS011;17046;52.074;4.748;2023-04-01T21:50:24;9.93;;;5.53;;
30233;SDS011;17046;52.074;4.748;2023-04-01T21:53:10;8.60;;;6.10;;
30233;SDS011;17046;52.074;4.748;2023-04-01T22:04:27;10.90;;;6.30;;
30233;SDS011;17046;52.074;4.748;2023-04-01T22:15:06;9.63;;;6.73;;
30233;SDS011;17046;52.074;4.748;2023-04-01T22:17:54;10.57;;;7.00;;
30233;SDS011;17046;52.074;4.748;2023-04-01T22:29:05;10.90;;;7.17;;
30233;SDS011;17046;52.074;4.748;2023-04-01T22:31:47;10.73;;;6.97;;
30233;SDS011;17046;52.074;4.748;2023-04-01T22:40:29;12.43;;;7.57;;
30233;SDS011;17046;52.074;4.748;2023-04-01T22:45:35;12.30;;;7.23;;
30233;SDS011;17046;52.074;4.748;2023-04-01T22:51:01;13.60;;;7.27;;
30233;SDS011;17046;52.074;4.748;2023-04-01T22:56:21;11.90;;;7.03;;
30233;SDS011;17046;52.074;4.748;2023-04-01T23:02:06;9.67;;;6.60;;
30233;SDS011;17046;52.074;4.748;2023-04-01T23:04:39;14.73;;;7.53;;
30233;SDS011;17046;52.074;4.748;2023-04-01T23:07:51;10.33;;;7.40;;
30233;SDS011;17046;52.074;4.748;2023-04-01T23:10:02;13.83;;;7.90;;
30233;SDS011;17046;52.074;4.748;2023-04-01T23:12:30;10.17;;;7.43;;
30233;SDS011;17046;52.074;4.748;2023-04-01T23:14:59;12.33;;;8.00;;
30233;SDS011;17046;52.074;4.748;2023-04-01T23:22:43;13.27;;;7.73;;
30233;SDS011;17046;52.074;4.748;2023-04-01T23:25:15;10.97;;;7.60;;
30233;SDS011;17046;52.074;4.748;2023-04-01T23:27:45;12.63;;;7.53;;
30233;SDS011;17046;52.074;4.748;2023-04-01T23:33:50;13.70;;;8.67;;
30233;SDS011;17046;52.074;4.748;2023-04-01T23:38:31;13.33;;;8.50;;
30233;SDS011;17046;52.074;4.748;2023-04-01T23:41:01;13.27;;;8.17;;
30233;SDS011;17046;52.074;4.748;2023-04-01T23:43:33;12.77;;;8.13;;
30233;SDS011;17046;52.074;4.748;2023-04-01T23:46:03;14.00;;;7.93;;
30233;SDS011;17046;52.074;4.748;2023-04-01T23:48:33;13.67;;;7.30;;
30233;SDS011;17046;52.074;4.748;2023-04-01T23:51:17;12.27;;;7.90;;
30233;SDS011;17046;52.074;4.748;2023-04-01T23:53:44;13.70;;;8.23;;
30233;SDS011;17046;52.074;4.748;2023-04-01T23:56:11;17.17;;;8.77;;
30233;SDS011;17046;52.074;4.748;2023-04-01T23:58:43;16.07;;;8.50;;
